createdAt,value
2023-04-29T06:35:49.381Z,35.40
2023-04-29T06:36:18.838Z,37.30
2023-04-29T06:37:15.901Z,34.30
2023-04-29T06:38:15.966Z,35.90
2023-04-29T06:39:15.806Z,34.20
2023-04-29T06:40:15.805Z,36.10
2023-04-29T06:41:15.720Z,38.10
2023-04-29T06:42:15.674Z,37.00
2023-04-29T06:43:15.633Z,37.30
2023-04-29T06:44:15.579Z,36.10
2023-04-29T06:45:15.543Z,35.20
2023-04-29T06:46:15.530Z,35.20
2023-04-29T06:47:15.463Z,38.90
2023-04-29T06:48:15.432Z,36.60
2023-04-29T06:49:15.378Z,35.70
2023-04-29T06:50:15.374Z,35.80
2023-04-29T06:51:15.326Z,35.60
2023-04-29T06:52:15.262Z,33.40
2023-04-29T06:53:15.216Z,36.20
2023-04-29T06:54:15.176Z,35.00
2023-04-29T06:55:15.156Z,34.40
2023-04-29T06:56:16.794Z,35.60
2023-04-29T06:57:15.060Z,34.70
2023-04-29T06:58:24.308Z,34.30
2023-04-29T06:59:14.977Z,33.40
2023-04-29T07:00:14.948Z,33.70
2023-04-29T07:01:14.920Z,31.40
2023-04-29T07:02:14.846Z,34.00
2023-04-29T07:03:14.936Z,32.40
2023-04-29T07:04:14.820Z,30.60
2023-04-29T07:05:14.724Z,33.60
2023-04-29T07:06:14.692Z,30.90
2023-04-29T07:07:14.648Z,30.70
2023-04-29T07:08:14.658Z,32.30
2023-04-29T07:09:14.597Z,34.30
2023-04-29T07:10:14.543Z,32.70
2023-04-29T07:11:14.485Z,29.70
2023-04-29T07:12:14.449Z,30.40
2023-04-29T07:13:14.409Z,31.90
2023-04-29T07:14:14.371Z,31.00
2023-04-29T07:15:14.343Z,30.60
2023-04-29T07:16:14.320Z,30.90
2023-04-29T07:17:14.407Z,30.00
2023-04-29T07:18:14.209Z,29.00
2023-04-29T07:19:14.186Z,28.10
2023-04-29T07:20:14.144Z,28.10
2023-04-29T07:21:14.093Z,30.70
2023-04-29T07:22:14.052Z,29.80
2023-04-29T07:23:14.004Z,31.80
2023-04-29T07:24:13.964Z,28.60
2023-04-29T07:25:13.932Z,29.70
2023-04-29T07:26:13.905Z,28.10
2023-04-29T07:27:13.863Z,30.30
2023-04-29T07:28:13.813Z,27.00
2023-04-29T07:29:13.777Z,28.80
2023-04-29T07:30:13.729Z,28.00
2023-04-29T07:31:13.712Z,27.40
2023-04-29T07:32:13.651Z,30.10
2023-04-29T07:33:13.631Z,29.20
2023-04-29T07:34:13.577Z,27.70
2023-04-29T07:35:13.537Z,25.50
2023-04-29T07:36:13.492Z,27.50
2023-04-29T07:37:13.452Z,28.10
2023-04-29T07:38:13.416Z,26.40
2023-04-29T07:39:13.373Z,26.80
2023-04-29T07:40:13.331Z,28.30
2023-04-29T07:41:13.345Z,27.20
2023-04-29T07:42:13.275Z,25.70
2023-04-29T07:43:13.240Z,25.00
2023-04-29T07:44:13.299Z,26.10
2023-04-29T07:45:13.134Z,26.50
2023-04-29T07:46:13.127Z,25.40
2023-04-29T07:47:13.064Z,27.10
2023-04-29T07:48:13.018Z,26.50
2023-04-29T07:49:12.966Z,25.40
2023-04-29T07:50:12.952Z,25.70
2023-04-29T07:51:12.889Z,26.30
2023-04-29T07:52:12.858Z,25.40
2023-04-29T07:53:12.809Z,24.60
2023-04-29T07:54:12.778Z,25.00
2023-04-29T07:55:12.730Z,25.50
2023-04-29T07:56:30.394Z,23.70
2023-04-29T07:57:12.665Z,24.30
2023-04-29T07:58:12.617Z,24.90
2023-04-29T07:59:12.599Z,24.70
2023-04-29T08:00:12.548Z,25.30
2023-04-29T08:01:12.653Z,24.50
2023-04-29T08:02:12.552Z,23.60
2023-04-29T08:03:12.629Z,24.40
2023-04-29T08:04:12.534Z,24.70
2023-04-29T08:05:12.610Z,26.70
2023-04-29T08:06:12.523Z,25.20
2023-04-29T08:07:12.279Z,25.50
2023-04-29T08:08:12.222Z,25.40
2023-04-29T08:09:12.182Z,26.30
2023-04-29T08:10:12.160Z,25.30
2023-04-29T08:11:12.126Z,26.40
2023-04-29T08:12:12.100Z,25.90
2023-04-29T08:13:12.066Z,25.50
2023-04-29T08:14:12.003Z,26.30
2023-04-29T08:15:11.958Z,26.10
2023-04-29T08:16:12.967Z,26.20
2023-04-29T08:17:15.796Z,26.10
2023-04-29T08:18:12.874Z,25.90
2023-04-29T08:19:12.416Z,25.50
2023-04-29T08:20:12.480Z,25.20
2023-04-29T08:21:12.297Z,25.70
2023-04-29T08:22:16.542Z,25.50
2023-04-29T08:23:11.652Z,24.90
2023-04-29T08:24:11.603Z,25.00
2023-04-29T08:25:11.594Z,25.80
2023-04-29T08:26:11.526Z,25.50
2023-04-29T08:27:11.498Z,25.00
2023-04-29T08:28:11.462Z,25.60
2023-04-29T08:29:11.397Z,26.60
2023-04-29T08:30:11.367Z,25.40
2023-04-29T08:31:11.365Z,26.60
2023-04-29T08:32:11.294Z,27.40
2023-04-29T08:33:11.251Z,26.70
2023-04-29T08:34:11.219Z,27.70
2023-04-29T08:35:11.189Z,27.60
2023-04-29T08:36:11.132Z,27.40
2023-04-29T08:37:11.114Z,27.80
2023-04-29T08:38:11.051Z,30.10
2023-04-29T08:39:11.030Z,27.50
2023-04-29T08:40:10.965Z,28.50
2023-04-29T08:41:10.948Z,29.90
2023-04-29T08:42:10.909Z,28.20
2023-04-29T08:43:10.880Z,29.40
2023-04-29T08:44:10.937Z,27.70
2023-04-29T08:45:10.780Z,27.70
2023-04-29T08:46:10.794Z,28.30
2023-04-29T08:47:10.725Z,28.90
2023-04-29T08:48:10.902Z,29.00
2023-04-29T08:49:10.688Z,29.80
2023-04-29T08:50:10.578Z,30.40
2023-04-29T08:51:10.542Z,31.50
2023-04-29T08:52:10.531Z,32.00
2023-04-29T08:53:10.467Z,32.00
2023-04-29T08:54:10.421Z,31.40
2023-04-29T08:55:10.391Z,31.20
2023-04-29T08:56:10.346Z,30.90
2023-04-29T08:57:10.447Z,32.70
2023-04-29T08:58:10.288Z,29.70
2023-04-29T08:59:10.224Z,32.80
2023-04-29T09:00:10.186Z,30.00
2023-04-29T09:01:10.209Z,32.40
2023-04-29T09:02:10.127Z,34.40
2023-04-29T09:03:10.150Z,33.80
2023-04-29T09:04:10.079Z,31.50
2023-04-29T09:05:09.984Z,31.80
2023-04-29T09:06:09.954Z,33.20
2023-04-29T09:07:09.928Z,36.00
2023-04-29T09:08:09.864Z,35.70
2023-04-29T09:09:09.849Z,35.30
2023-04-29T09:10:09.801Z,38.10
2023-04-29T09:11:10.393Z,38.80
2023-04-29T09:12:09.716Z,41.10
2023-04-29T09:13:09.706Z,42.00
2023-04-29T09:14:09.650Z,43.00
2023-04-29T09:15:09.688Z,46.70
2023-04-29T09:16:09.607Z,46.30
2023-04-29T09:17:09.507Z,45.50
2023-04-29T09:18:09.528Z,48.10
2023-04-29T09:19:09.779Z,45.40
2023-04-29T09:20:09.404Z,44.70
2023-04-29T09:21:09.378Z,47.40
2023-04-29T09:22:09.445Z,44.00
2023-04-29T09:23:09.898Z,44.00
2023-04-29T09:24:09.228Z,45.90
2023-04-29T09:25:09.207Z,44.10
2023-04-29T09:26:09.163Z,43.50
2023-04-29T09:27:09.149Z,42.80
2023-04-29T09:28:09.101Z,41.40
2023-04-29T09:29:09.044Z,41.70
2023-04-29T09:30:08.988Z,41.90
2023-04-29T09:31:09.017Z,39.90
2023-04-29T09:32:08.903Z,37.90
2023-04-29T09:33:08.983Z,39.50
2023-04-29T09:34:08.850Z,41.90
2023-04-29T09:35:08.830Z,39.60
2023-04-29T09:36:08.751Z,40.50
2023-04-29T09:37:10.315Z,40.50
2023-04-29T09:38:08.704Z,41.40
2023-04-29T09:39:08.666Z,42.60
2023-04-29T09:40:08.638Z,41.30
2023-04-29T09:41:08.634Z,42.10
2023-04-29T09:42:08.537Z,43.40
2023-04-29T09:43:08.470Z,41.50
2023-04-29T09:44:08.444Z,42.10
2023-04-29T09:45:08.411Z,41.60
2023-04-29T09:46:08.389Z,42.00
2023-04-29T09:47:08.334Z,42.50
2023-04-29T09:48:08.310Z,42.70
2023-04-29T09:49:08.254Z,45.40
2023-04-29T09:50:08.204Z,44.00
2023-04-29T09:51:08.165Z,42.10
2023-04-29T09:52:08.151Z,44.20
2023-04-29T09:53:08.092Z,43.00
2023-04-29T09:54:08.056Z,42.30
2023-04-29T09:55:08.091Z,43.70
2023-04-29T09:56:07.991Z,46.10
2023-04-29T09:57:07.945Z,49.50
2023-04-29T09:58:07.899Z,48.10
2023-04-29T09:59:07.861Z,50.10
2023-04-29T10:00:07.820Z,48.00
2023-04-29T10:01:07.849Z,50.00
2023-04-29T10:02:07.719Z,49.00
2023-04-29T10:03:07.831Z,52.60
2023-04-29T10:04:07.686Z,53.50
2023-04-29T10:05:07.760Z,52.20
2023-04-29T10:06:07.565Z,52.90
2023-04-29T10:07:07.523Z,51.90
2023-04-29T10:08:07.498Z,51.10
2023-04-29T10:09:07.474Z,50.10
2023-04-29T10:10:07.403Z,48.30
2023-04-29T10:11:07.373Z,49.00
2023-04-29T10:12:07.332Z,51.00
2023-04-29T10:13:07.285Z,45.70
2023-04-29T10:14:07.232Z,44.50
2023-04-29T10:15:07.239Z,41.30
2023-04-29T10:16:08.326Z,40.60
2023-04-29T10:17:07.132Z,40.60
2023-04-29T10:18:07.086Z,40.00
2023-04-29T10:19:07.047Z,39.50
2023-04-29T10:20:07.028Z,37.20
2023-04-29T10:21:06.962Z,37.00
2023-04-29T10:22:06.920Z,39.60
2023-04-29T10:23:06.883Z,37.60
2023-04-29T10:24:06.854Z,37.90
2023-04-29T10:25:06.848Z,39.10
2023-04-29T10:26:06.773Z,37.10
2023-04-29T10:27:06.733Z,35.90
2023-04-29T10:28:06.691Z,36.00
2023-04-29T10:29:06.661Z,33.90
2023-04-29T10:30:06.612Z,36.30
2023-04-29T10:31:06.647Z,31.90
2023-04-29T10:32:06.533Z,35.60
2023-04-29T10:33:06.534Z,36.00
2023-04-29T10:34:06.452Z,34.40
2023-04-29T10:35:06.491Z,34.40
2023-04-29T10:36:06.369Z,37.00
2023-04-29T10:37:06.365Z,34.00
2023-04-29T10:38:06.313Z,34.00
2023-04-29T10:39:06.269Z,33.70
2023-04-29T10:40:06.230Z,33.60
2023-04-29T10:41:06.181Z,35.80
2023-04-29T10:42:06.151Z,33.10
2023-04-29T10:43:14.680Z,34.10
2023-04-29T10:44:06.081Z,35.40
2023-04-29T10:45:06.146Z,32.20
2023-04-29T10:46:06.078Z,33.60
2023-04-29T10:47:05.970Z,33.40
2023-04-29T10:48:06.006Z,32.50
2023-04-29T10:49:05.876Z,32.20
2023-04-29T10:50:05.827Z,35.10
2023-04-29T10:51:17.001Z,34.00
2023-04-29T10:52:15.559Z,33.40
2023-04-29T10:53:05.720Z,34.80
2023-04-29T10:54:05.691Z,32.50
2023-04-29T10:55:05.622Z,33.10
2023-04-29T10:56:05.629Z,32.70
2023-04-29T10:57:05.540Z,31.90
2023-04-29T10:58:05.518Z,34.90
2023-04-29T10:59:05.479Z,33.30
2023-04-29T11:00:05.441Z,31.80
2023-04-29T11:01:05.501Z,31.20
2023-04-29T11:02:05.361Z,28.30
2023-04-29T11:03:05.434Z,28.60
2023-04-29T11:04:05.411Z,28.80
2023-04-29T11:05:05.235Z,32.10
2023-04-29T11:06:05.199Z,29.60
2023-04-29T11:07:05.161Z,29.30
2023-04-29T11:08:05.120Z,30.00
2023-04-29T11:09:05.092Z,31.40
2023-04-29T11:10:05.067Z,29.30
2023-04-29T11:11:05.019Z,30.10
2023-04-29T11:12:04.971Z,30.70
2023-04-29T11:13:04.941Z,29.80
2023-04-29T11:14:04.899Z,29.80
2023-04-29T11:15:05.060Z,32.70
2023-04-29T11:16:04.909Z,29.00
2023-04-29T11:17:04.776Z,30.90
2023-04-29T11:18:04.814Z,27.50
2023-04-29T11:19:04.761Z,27.90
2023-04-29T11:20:04.670Z,26.50
2023-04-29T11:21:13.189Z,30.80
2023-04-29T11:22:14.143Z,28.80
2023-04-29T11:23:13.685Z,30.30
2023-04-29T11:24:14.228Z,29.40
2023-04-29T11:25:13.779Z,27.60
2023-04-29T11:26:13.853Z,28.40
2023-04-29T11:27:13.440Z,29.10
2023-04-29T11:28:13.410Z,28.70
2023-04-29T11:29:13.420Z,28.50
2023-04-29T11:30:13.555Z,29.90
2023-04-29T11:31:19.624Z,29.40
2023-04-29T11:32:04.281Z,49.20
2023-04-29T11:33:15.624Z,30.80
2023-04-29T11:34:13.615Z,30.50
2023-04-29T11:35:13.199Z,30.40
2023-04-29T11:36:04.081Z,30.10
2023-04-29T11:37:14.180Z,30.20
2023-04-29T11:38:03.987Z,31.40
2023-04-29T11:39:03.966Z,31.00
2023-04-29T11:40:03.914Z,30.90
2023-04-29T11:41:03.880Z,31.00
2023-04-29T11:42:03.838Z,31.40
2023-04-29T11:43:03.794Z,29.40
2023-04-29T11:44:03.755Z,30.50
2023-04-29T11:45:03.737Z,48.10
2023-04-29T11:46:03.706Z,30.70
2023-04-29T11:47:03.643Z,37.70
2023-04-29T11:48:03.644Z,29.30
2023-04-29T11:49:03.565Z,28.70
2023-04-29T11:50:03.537Z,28.80
2023-04-29T11:51:03.522Z,26.40
2023-04-29T11:52:03.471Z,28.60
2023-04-29T11:53:03.446Z,27.50
2023-04-29T11:54:03.386Z,27.20
2023-04-29T11:55:03.390Z,28.10
2023-04-29T11:56:03.310Z,28.40
2023-04-29T11:57:03.283Z,29.30
2023-04-29T11:58:03.242Z,28.20
2023-04-29T11:59:03.205Z,29.30
2023-04-29T12:00:03.180Z,27.90
2023-04-29T12:01:03.145Z,28.10
2023-04-29T12:02:03.153Z,28.50
2023-04-29T12:03:03.204Z,27.40
2023-04-29T12:04:03.332Z,27.60
2023-04-29T12:05:03.324Z,27.90
2023-04-29T12:06:02.964Z,27.70
2023-04-29T12:07:02.939Z,26.60
2023-04-29T12:08:02.883Z,26.70
2023-04-29T12:09:02.892Z,25.90
2023-04-29T12:10:02.819Z,26.00
2023-04-29T12:11:02.770Z,26.10
2023-04-29T12:12:02.754Z,25.30
2023-04-29T12:13:02.694Z,25.80
2023-04-29T12:14:02.664Z,25.70
2023-04-29T12:15:02.654Z,27.60
2023-04-29T12:16:02.644Z,25.50
2023-04-29T12:17:02.560Z,26.20
2023-04-29T12:18:02.618Z,26.70
2023-04-29T12:19:02.485Z,26.20
2023-04-29T12:20:02.477Z,25.70
2023-04-29T12:21:02.421Z,25.30
2023-04-29T12:22:02.391Z,25.20
2023-04-29T12:23:02.337Z,24.70
2023-04-29T12:24:02.328Z,24.00
2023-04-29T12:25:02.281Z,23.40
2023-04-29T12:26:02.236Z,22.90
2023-04-29T12:27:02.245Z,23.80
2023-04-29T12:28:02.165Z,23.40
2023-04-29T12:29:02.128Z,25.30
2023-04-29T12:30:02.103Z,23.80
2023-04-29T12:31:02.135Z,23.00
2023-04-29T12:32:02.026Z,23.30
2023-04-29T12:33:02.058Z,23.00
2023-04-29T12:34:01.980Z,23.30
2023-04-29T12:35:01.917Z,23.00
2023-04-29T12:36:01.881Z,23.20
2023-04-29T12:37:01.868Z,23.40
2023-04-29T12:38:01.815Z,21.60
2023-04-29T12:39:01.776Z,21.50
2023-04-29T12:40:01.782Z,20.20
2023-04-29T12:41:01.721Z,21.30
2023-04-29T12:42:01.670Z,21.00
2023-04-29T12:43:01.629Z,20.20
2023-04-29T12:44:01.606Z,20.30
2023-04-29T12:45:01.598Z,20.00
2023-04-29T12:46:01.539Z,19.40
2023-04-29T12:47:01.590Z,19.50
2023-04-29T12:48:01.543Z,19.80
2023-04-29T12:49:01.425Z,19.30
2023-04-29T12:50:01.413Z,19.20
2023-04-29T12:51:01.358Z,20.70
2023-04-29T12:52:01.344Z,20.20
2023-04-29T12:53:01.288Z,18.80
2023-04-29T12:54:01.265Z,18.80
2023-04-29T12:55:01.244Z,18.50
2023-04-29T12:56:01.185Z,18.20
2023-04-29T12:57:01.139Z,18.50
2023-04-29T12:58:01.471Z,18.20
2023-04-29T12:59:01.075Z,18.50
2023-04-29T13:00:01.045Z,17.80
2023-04-29T13:01:01.383Z,18.00
2023-04-29T13:02:01.738Z,17.60
2023-04-29T13:03:01.116Z,17.90
2023-04-29T13:04:01.021Z,17.50
2023-04-29T13:05:01.093Z,17.80
2023-04-29T13:06:00.832Z,18.60
2023-04-29T13:07:00.888Z,18.40
2023-04-29T13:08:00.759Z,17.60
2023-04-29T13:09:00.750Z,18.30
2023-04-29T13:10:00.829Z,17.90
2023-04-29T13:11:00.667Z,17.70
2023-04-29T13:12:00.633Z,18.30
2023-04-29T13:13:00.598Z,19.10
2023-04-29T13:14:00.600Z,18.50
2023-04-29T13:15:00.583Z,18.40
2023-04-29T13:16:00.547Z,18.20
2023-04-29T13:17:01.167Z,18.80
2023-04-29T13:18:00.468Z,18.70
2023-04-29T13:19:17.071Z,18.50
2023-04-29T13:20:00.339Z,18.50
2023-04-29T13:21:02.245Z,19.30
2023-04-29T13:22:00.294Z,18.70
2023-04-29T13:23:00.250Z,19.00
2023-04-29T13:24:00.224Z,19.60
2023-04-29T13:25:00.198Z,19.10
2023-04-29T13:26:00.169Z,19.10
2023-04-29T13:27:00.121Z,19.80
2023-04-29T13:28:00.141Z,18.50
2023-04-29T13:29:00.031Z,19.40
2023-04-29T13:30:00.000Z,19.40
2023-04-29T13:30:59.958Z,19.20
2023-04-29T13:31:59.968Z,19.50
2023-04-29T13:33:05.086Z,19.20
2023-04-29T13:33:59.882Z,18.60
2023-04-29T13:34:59.803Z,19.10
2023-04-29T13:35:59.770Z,19.20
2023-04-29T13:36:59.723Z,19.50
2023-04-29T13:37:59.703Z,19.50
2023-04-29T13:38:59.929Z,19.20
2023-04-29T13:39:59.640Z,18.50
2023-04-29T13:40:59.585Z,19.00
2023-04-29T13:41:59.764Z,18.00
2023-04-29T13:43:06.020Z,18.50
2023-04-29T13:44:02.074Z,17.40
2023-04-29T13:44:59.457Z,18.20
2023-04-29T13:45:59.423Z,18.20
2023-04-29T13:46:59.449Z,18.00
2023-04-29T13:48:08.502Z,17.80
2023-04-29T13:49:17.175Z,17.70
2023-04-29T13:52:32.328Z,17.70
2023-04-29T13:53:19.818Z,17.70
2023-04-29T13:54:48.092Z,18.20
2023-04-29T13:56:35.054Z,17.90
2023-04-29T13:57:27.182Z,17.50
2023-04-29T13:59:59.053Z,17.50
2023-04-29T14:01:12.647Z,17.80
2023-04-29T14:03:58.863Z,17.40
2023-04-29T14:04:59.228Z,17.30
2023-04-29T14:05:58.662Z,16.40
2023-04-29T14:06:58.675Z,16.80
2023-04-29T14:07:58.595Z,16.30
2023-04-29T14:08:58.597Z,16.80
2023-04-29T14:09:58.521Z,16.70
2023-04-29T14:10:58.494Z,16.30
2023-04-29T14:11:58.441Z,16.40
2023-04-29T14:12:58.406Z,15.90
2023-04-29T14:13:58.366Z,16.60
2023-04-29T14:15:00.086Z,15.70
2023-04-29T14:15:58.349Z,15.70
2023-04-29T14:16:58.261Z,15.00
2023-04-29T14:17:58.410Z,16.60
2023-04-29T14:18:58.651Z,16.20
2023-04-29T14:19:58.146Z,15.80
2023-04-29T14:20:58.138Z,16.60
2023-04-29T14:21:58.074Z,16.20
2023-04-29T14:23:07.941Z,16.30
2023-04-29T14:23:57.999Z,16.80
2023-04-29T14:24:57.963Z,15.50
2023-04-29T14:26:16.475Z,16.80
2023-04-29T14:26:57.913Z,15.60
2023-04-29T14:27:57.860Z,16.50
2023-04-29T14:28:58.066Z,15.70
2023-04-29T14:29:57.781Z,16.30
2023-04-29T14:30:57.753Z,15.60
2023-04-29T14:31:57.695Z,16.40
2023-04-29T14:32:57.770Z,16.10
2023-04-29T14:33:57.623Z,15.40
2023-04-29T14:34:57.586Z,15.20
2023-04-29T14:35:57.548Z,16.10
2023-04-29T14:36:57.502Z,14.80
2023-04-29T14:37:57.465Z,15.10
2023-04-29T14:38:57.450Z,15.00
2023-04-29T14:39:57.400Z,14.90
2023-04-29T14:40:57.355Z,15.00
2023-04-29T14:41:57.313Z,14.90
2023-04-29T14:43:06.375Z,14.80
2023-04-29T14:43:57.266Z,14.90
2023-04-29T14:44:57.200Z,15.10
2023-04-29T14:45:57.292Z,14.20
2023-04-29T14:46:57.124Z,14.60
2023-04-29T14:47:57.119Z,14.60
2023-04-29T14:48:57.074Z,15.20
2023-04-29T14:49:57.024Z,14.30
2023-04-29T14:50:56.991Z,15.40
2023-04-29T14:51:56.950Z,14.40
2023-04-29T14:52:56.908Z,15.30
2023-04-29T14:53:56.866Z,14.60
2023-04-29T14:54:56.926Z,14.70
2023-04-29T14:55:56.792Z,16.90
2023-04-29T14:56:56.793Z,15.40
2023-04-29T14:57:56.712Z,13.90
2023-04-29T14:58:56.691Z,14.20
2023-04-29T14:59:56.667Z,14.50
2023-04-29T15:00:56.605Z,14.80
2023-04-29T15:01:56.618Z,14.10
2023-04-29T15:02:56.708Z,14.00
2023-04-29T15:03:56.530Z,13.70
2023-04-29T15:04:56.641Z,14.20
2023-04-29T15:05:56.487Z,14.30
2023-04-29T15:06:56.398Z,14.00
2023-04-29T15:07:56.350Z,14.10
2023-04-29T15:08:56.327Z,14.00
2023-04-29T15:09:56.273Z,14.10
2023-04-29T15:10:56.258Z,14.70
2023-04-29T15:11:56.231Z,15.20
2023-04-29T15:12:56.171Z,14.90
2023-04-29T15:13:56.134Z,15.90
2023-04-29T15:14:56.329Z,15.30
2023-04-29T15:15:57.918Z,15.50
2023-04-29T15:16:56.044Z,15.50
2023-04-29T15:17:56.038Z,14.40
2023-04-29T15:18:55.952Z,15.80
2023-04-29T15:19:55.921Z,15.10
2023-04-29T15:20:55.894Z,14.10
2023-04-29T15:21:55.845Z,14.40
2023-04-29T15:22:55.830Z,14.20
2023-04-29T15:23:55.793Z,15.00
2023-04-29T15:24:55.743Z,14.10
2023-04-29T15:25:55.687Z,14.00
2023-04-29T15:26:55.659Z,14.50
2023-04-29T15:27:55.620Z,15.20
2023-04-29T15:28:55.590Z,14.00
2023-04-29T15:29:55.724Z,12.60
2023-04-29T15:30:55.514Z,13.10
2023-04-29T15:31:55.554Z,12.80
2023-04-29T15:32:55.509Z,11.90
2023-04-29T15:33:55.407Z,12.30
2023-04-29T15:34:55.376Z,11.40
2023-04-29T15:35:55.345Z,11.40
2023-04-29T15:36:55.300Z,11.20
2023-04-29T15:37:55.336Z,11.70
2023-04-29T15:38:55.228Z,11.40
2023-04-29T15:39:55.424Z,11.50
2023-04-29T15:40:55.148Z,11.50
2023-04-29T15:41:55.119Z,13.20
2023-04-29T15:42:55.088Z,12.30
2023-04-29T15:43:55.034Z,11.50
2023-04-29T15:44:55.003Z,11.20
2023-04-29T15:45:55.055Z,10.90
2023-04-29T15:46:54.947Z,11.30
2023-04-29T15:47:54.927Z,11.20
2023-04-29T15:48:54.884Z,10.60
2023-04-29T15:49:55.093Z,11.10
2023-04-29T15:50:54.779Z,10.50
2023-04-29T15:51:54.734Z,13.50
2023-04-29T15:52:54.707Z,10.50
2023-04-29T15:53:54.668Z,10.30
2023-04-29T15:54:54.688Z,10.30
2023-04-29T15:55:54.607Z,10.60
2023-04-29T15:56:54.559Z,10.70
2023-04-29T15:57:54.528Z,10.00
2023-04-29T15:58:54.489Z,9.80
2023-04-29T15:59:54.622Z,9.20
2023-04-29T16:00:54.452Z,11.10
2023-04-29T16:01:54.379Z,9.10
2023-04-29T16:02:54.380Z,9.70
2023-04-29T16:03:54.368Z,9.80
2023-04-29T16:04:54.277Z,9.60
2023-04-29T16:05:54.328Z,10.90
2023-04-29T16:06:54.213Z,10.20
2023-04-29T16:07:54.164Z,9.70
2023-04-29T16:08:54.120Z,10.50
2023-04-29T16:09:54.324Z,10.00
2023-04-29T16:10:54.050Z,11.10
2023-04-29T16:11:54.010Z,9.70
2023-04-29T16:12:53.990Z,10.30
2023-04-29T16:13:53.951Z,10.20
2023-04-29T16:14:53.917Z,10.00
2023-04-29T16:15:53.869Z,10.40
2023-04-29T16:16:53.873Z,11.60
2023-04-29T16:17:53.818Z,10.80
2023-04-29T16:18:53.756Z,10.80
2023-04-29T16:19:53.956Z,9.50
2023-04-29T16:20:53.686Z,12.20
2023-04-29T16:21:53.639Z,9.80
2023-04-29T16:22:53.610Z,11.20
2023-04-29T16:23:53.566Z,10.70
2023-04-29T16:24:53.531Z,10.20
2023-04-29T16:25:53.503Z,10.40
2023-04-29T16:26:53.479Z,10.40
2023-04-29T16:27:53.422Z,10.00
2023-04-29T16:28:53.386Z,10.40
2023-04-29T16:29:55.491Z,10.40
2023-04-29T16:30:53.316Z,11.10
2023-04-29T16:31:53.435Z,10.80
2023-04-29T16:32:53.282Z,9.40
2023-04-29T16:33:53.212Z,11.30
2023-04-29T16:34:53.297Z,10.00
2023-04-29T16:35:53.128Z,10.80
2023-04-29T16:36:53.103Z,10.30
2023-04-29T16:37:53.056Z,12.30
2023-04-29T16:38:53.015Z,10.90
2023-04-29T16:39:53.124Z,9.90
2023-04-29T16:40:52.958Z,9.50
2023-04-29T16:41:52.913Z,11.10
2023-04-29T16:42:52.869Z,10.80
2023-04-29T16:43:52.837Z,11.40
2023-04-29T16:44:52.790Z,10.30
2023-04-29T16:45:52.780Z,9.60
2023-04-29T16:46:52.745Z,10.50
2023-04-29T16:47:52.731Z,10.30
2023-04-29T16:48:52.644Z,10.60
2023-04-29T16:49:52.780Z,12.30
2023-04-29T16:50:52.569Z,12.60
2023-04-29T16:51:52.529Z,12.10
2023-04-29T16:52:52.511Z,12.90
2023-04-29T16:53:52.453Z,11.00
2023-04-29T16:54:52.420Z,12.70
2023-04-29T16:55:52.386Z,11.10
2023-04-29T16:56:52.340Z,11.60
2023-04-29T16:57:52.314Z,12.70
2023-04-29T16:58:52.279Z,11.00
2023-04-29T16:59:52.400Z,10.80
2023-04-29T17:00:52.223Z,11.50
2023-04-29T17:01:52.174Z,11.60
2023-04-29T17:02:52.134Z,11.60
2023-04-29T17:03:52.091Z,11.70
2023-04-29T17:04:52.190Z,11.90
2023-04-29T17:05:52.007Z,10.90
2023-04-29T17:06:51.984Z,11.40
2023-04-29T17:07:51.932Z,11.10
2023-04-29T17:08:51.917Z,15.00
2023-04-29T17:09:52.294Z,11.40
2023-04-29T17:10:51.829Z,11.30
2023-04-29T17:11:51.781Z,10.80
2023-04-29T17:12:51.762Z,11.30
2023-04-29T17:13:51.718Z,12.10
2023-04-29T17:14:51.681Z,11.30
2023-04-29T17:15:51.647Z,10.60
2023-04-29T17:16:51.641Z,10.90
2023-04-29T17:17:51.606Z,11.00
2023-04-29T17:18:51.538Z,10.60
2023-04-29T17:19:51.958Z,12.70
2023-04-29T17:20:51.441Z,11.10
2023-04-29T17:21:51.404Z,11.20
2023-04-29T17:22:51.371Z,11.10
2023-04-29T17:23:51.342Z,11.80
2023-04-29T17:24:51.290Z,11.90
2023-04-29T17:25:51.256Z,11.00
2023-04-29T17:26:51.248Z,10.40
2023-04-29T17:27:51.180Z,10.10
2023-04-29T17:28:51.162Z,11.70
2023-04-29T17:29:51.132Z,11.00
2023-04-29T17:30:51.080Z,10.40
2023-04-29T17:31:51.064Z,9.60
2023-04-29T17:32:51.030Z,10.10
2023-04-29T17:33:50.954Z,10.50
2023-04-29T17:34:51.857Z,11.40
2023-04-29T17:35:50.883Z,9.50
2023-04-29T17:36:50.852Z,10.20
2023-04-29T17:37:50.822Z,9.80
2023-04-29T17:38:50.775Z,9.20
2023-04-29T17:39:50.737Z,10.20
2023-04-29T17:40:50.697Z,10.00
2023-04-29T17:41:50.673Z,9.50
2023-04-29T17:42:50.639Z,9.30
2023-04-29T17:43:50.582Z,10.00
2023-04-29T17:44:50.550Z,11.10
2023-04-29T17:45:50.524Z,9.60
2023-04-29T17:46:50.480Z,10.10
2023-04-29T17:47:50.490Z,9.80
2023-04-29T17:48:50.384Z,10.80
2023-04-29T17:49:50.372Z,10.00
2023-04-29T17:50:50.329Z,10.10
2023-04-29T17:51:50.278Z,10.70
2023-04-29T17:52:50.236Z,10.70
2023-04-29T17:53:50.213Z,10.10
2023-04-29T17:54:50.182Z,9.90
2023-04-29T17:55:50.126Z,10.00
2023-04-29T17:56:50.084Z,9.10
2023-04-29T17:57:50.050Z,8.60
2023-04-29T17:58:50.011Z,9.60
2023-04-29T17:59:49.996Z,9.90
2023-04-29T18:00:50.018Z,10.70
2023-04-29T18:01:49.895Z,10.30
2023-04-29T18:02:50.067Z,11.70
2023-04-29T18:03:49.926Z,10.60
2023-04-29T18:04:49.780Z,10.40
2023-04-29T18:05:49.751Z,11.50
2023-04-29T18:06:49.705Z,9.90
2023-04-29T18:07:49.664Z,10.10
2023-04-29T18:08:49.647Z,11.20
2023-04-29T18:09:49.607Z,11.00
2023-04-29T18:10:49.586Z,9.60
2023-04-29T18:11:49.511Z,9.50
2023-04-29T18:12:49.485Z,9.70
2023-04-29T18:13:49.452Z,9.50
2023-04-29T18:14:49.424Z,11.30
2023-04-29T18:15:49.355Z,8.20
2023-04-29T18:16:49.382Z,8.90
2023-04-29T18:17:49.331Z,10.90
2023-04-29T18:18:49.254Z,8.50
2023-04-29T18:19:49.211Z,10.30
2023-04-29T18:20:49.181Z,9.00
2023-04-29T18:21:49.141Z,9.40
2023-04-29T18:22:49.456Z,8.20
2023-04-29T18:23:49.135Z,8.30
2023-04-29T18:24:49.028Z,8.40
2023-04-29T18:25:48.974Z,8.40
2023-04-29T18:26:48.942Z,7.60
2023-04-29T18:27:48.908Z,8.40
2023-04-29T18:28:48.874Z,7.80
2023-04-29T18:29:48.835Z,8.50
2023-04-29T18:30:48.786Z,8.20
2023-04-29T18:31:48.790Z,8.10
2023-04-29T18:32:48.739Z,9.30
2023-04-29T18:33:48.674Z,9.20
2023-04-29T18:34:48.648Z,9.60
2023-04-29T18:35:48.597Z,8.20
2023-04-29T18:36:48.555Z,9.40
2023-04-29T18:37:48.527Z,8.00
2023-04-29T18:38:48.481Z,7.40
2023-04-29T18:39:48.440Z,8.10
2023-04-29T18:40:48.424Z,8.50
2023-04-29T18:41:48.365Z,8.70
2023-04-29T18:42:48.324Z,8.80
2023-04-29T18:43:48.289Z,9.00
2023-04-29T18:44:48.262Z,9.10
2023-04-29T18:45:48.239Z,7.90
2023-04-29T18:46:48.172Z,7.90
2023-04-29T18:47:48.163Z,7.70
2023-04-29T18:48:48.096Z,9.30
2023-04-29T18:49:48.049Z,8.20
2023-04-29T18:50:48.017Z,7.90
2023-04-29T18:51:48.054Z,8.50
2023-04-29T18:52:47.961Z,8.30
2023-04-29T18:53:47.911Z,8.80
2023-04-29T18:54:47.853Z,8.50
2023-04-29T18:55:47.846Z,9.20
2023-04-29T18:56:47.778Z,9.00
2023-04-29T18:57:47.753Z,10.10
2023-04-29T18:58:47.733Z,7.80
2023-04-29T18:59:47.666Z,9.60
2023-04-29T19:00:47.630Z,8.50
2023-04-29T19:01:47.751Z,7.50
2023-04-29T19:02:47.603Z,8.30
2023-04-29T19:03:47.510Z,9.60
2023-04-29T19:04:47.500Z,8.80
2023-04-29T19:05:47.439Z,12.20
2023-04-29T19:06:47.445Z,9.70
2023-04-29T19:07:47.351Z,15.60
2023-04-29T19:08:47.311Z,13.90
2023-04-29T19:09:47.282Z,9.60
2023-04-29T19:10:47.233Z,9.00
2023-04-29T19:11:47.211Z,9.70
2023-04-29T19:12:47.160Z,8.90
2023-04-29T19:13:47.127Z,10.20
2023-04-29T19:14:47.078Z,9.70
2023-04-29T19:15:47.065Z,9.40
2023-04-29T19:16:47.014Z,8.70
2023-04-29T19:17:47.019Z,8.40
2023-04-29T19:18:46.936Z,9.00
2023-04-29T19:19:46.881Z,9.40
2023-04-29T19:20:46.846Z,10.00
2023-04-29T19:21:46.815Z,8.50
2023-04-29T19:22:46.783Z,9.10
2023-04-29T19:23:46.726Z,8.50
2023-04-29T19:24:46.685Z,9.20
2023-04-29T19:25:46.651Z,8.50
2023-04-29T19:26:46.625Z,8.40
2023-04-29T19:27:46.571Z,8.00
2023-04-29T19:28:46.556Z,8.80
2023-04-29T19:29:46.498Z,8.70
2023-04-29T19:30:46.453Z,7.20
2023-04-29T19:31:46.492Z,8.20
2023-04-29T19:32:46.469Z,7.80
2023-04-29T19:33:46.340Z,8.80
2023-04-29T19:34:46.295Z,10.00
2023-04-29T19:35:46.275Z,10.20
2023-04-29T19:36:46.223Z,9.20
2023-04-29T19:37:46.188Z,8.30